sensor_id;sensor_type;location;lat;lon;timestamp;temperature;humidity
8537;DHT22;4306;50.210;10.628;2022-12-18T00:02:07;-11.10;99.90
8537;DHT22;4306;50.210;10.628;2022-12-18T00:04:34;-11.10;99.90
8537;DHT22;4306;50.210;10.628;2022-12-18T00:07:01;-11.10;99.90
8537;DHT22;4306;50.210;10.628;2022-12-18T00:09:28;-11.00;99.90
8537;DHT22;4306;50.210;10.628;2022-12-18T00:11:55;-11.00;99.90
8537;DHT22;4306;50.210;10.628;2022-12-18T00:14:23;-11.10;99.90
8537;DHT22;4306;50.210;10.628;2022-12-18T00:16:50;-11.10;99.90
8537;DHT22;4306;50.210;10.628;2022-12-18T00:19:17;-11.10;99.90
8537;DHT22;4306;50.210;10.628;2022-12-18T00:21:44;-11.10;99.90
8537;DHT22;4306;50.210;10.628;2022-12-18T00:24:11;-11.10;99.90
8537;DHT22;4306;50.210;10.628;2022-12-18T00:26:39;-11.20;99.90
8537;DHT22;4306;50.210;10.628;2022-12-18T00:29:09;-11.20;99.90
8537;DHT22;4306;50.210;10.628;2022-12-18T00:31:38;-11.20;99.90
8537;DHT22;4306;50.210;10.628;2022-12-18T00:34:05;-11.10;99.90
8537;DHT22;4306;50.210;10.628;2022-12-18T00:36:33;-11.10;99.90
8537;DHT22;4306;50.210;10.628;2022-12-18T00:39:02;-11.10;99.90
8537;DHT22;4306;50.210;10.628;2022-12-18T00:41:30;-11.10;99.90
8537;DHT22;4306;50.210;10.628;2022-12-18T00:44:15;-11.10;99.90
8537;DHT22;4306;50.210;10.628;2022-12-18T00:46:44;-11.20;99.90
8537;DHT22;4306;50.210;10.628;2022-12-18T00:49:12;-11.20;99.90
8537;DHT22;4306;50.210;10.628;2022-12-18T00:51:39;-11.20;99.90
8537;DHT22;4306;50.210;10.628;2022-12-18T00:54:06;-11.20;99.90
8537;DHT22;4306;50.210;10.628;2022-12-18T00:56:32;-11.20;99.90
8537;DHT22;4306;50.210;10.628;2022-12-18T00:59:01;-11.20;99.90
8537;DHT22;4306;50.210;10.628;2022-12-18T01:01:28;-11.20;99.90
8537;DHT22;4306;50.210;10.628;2022-12-18T01:04:00;-11.20;99.90
8537;DHT22;4306;50.210;10.628;2022-12-18T01:06:27;-11.30;99.90
8537;DHT22;4306;50.210;10.628;2022-12-18T01:08:54;-11.20;99.90
8537;DHT22;4306;50.210;10.628;2022-12-18T01:11:23;-11.20;99.90
8537;DHT22;4306;50.210;10.628;2022-12-18T01:13:50;-11.30;99.90
8537;DHT22;4306;50.210;10.628;2022-12-18T01:16:17;-11.30;99.90
8537;DHT22;4306;50.210;10.628;2022-12-18T01:18:44;-11.30;99.90
8537;DHT22;4306;50.210;10.628;2022-12-18T01:21:15;-11.30;99.90
8537;DHT22;4306;50.210;10.628;2022-12-18T01:23:42;-11.30;99.90
8537;DHT22;4306;50.210;10.628;2022-12-18T01:26:10;-11.20;99.90
8537;DHT22;4306;50.210;10.628;2022-12-18T01:28:38;-11.20;99.90
8537;DHT22;4306;50.210;10.628;2022-12-18T01:31:17;-11.20;99.90
8537;DHT22;4306;50.210;10.628;2022-12-18T01:36:20;-11.20;99.90
8537;DHT22;4306;50.210;10.628;2022-12-18T01:38:49;-11.20;99.90
8537;DHT22;4306;50.210;10.628;2022-12-18T01:41:17;-11.20;99.90
8537;DHT22;4306;50.210;10.628;2022-12-18T01:43:48;-11.20;99.90
8537;DHT22;4306;50.210;10.628;2022-12-18T01:46:16;-11.20;99.90
8537;DHT22;4306;50.210;10.628;2022-12-18T01:48:44;-11.20;99.90
8537;DHT22;4306;50.210;10.628;2022-12-18T01:51:12;-11.30;99.90
8537;DHT22;4306;50.210;10.628;2022-12-18T01:53:41;-11.30;99.90
8537;DHT22;4306;50.210;10.628;2022-12-18T01:56:12;-11.30;99.90
8537;DHT22;4306;50.210;10.628;2022-12-18T01:58:48;-11.30;99.90
8537;DHT22;4306;50.210;10.628;2022-12-18T02:01:17;-11.30;99.90
8537;DHT22;4306;50.210;10.628;2022-12-18T02:03:45;-11.40;99.90
8537;DHT22;4306;50.210;10.628;2022-12-18T02:06:15;-11.50;99.90
8537;DHT22;4306;50.210;10.628;2022-12-18T02:08:52;-11.10;99.90
8537;DHT22;4306;50.210;10.628;2022-12-18T02:11:28;-11.50;99.90
8537;DHT22;4306;50.210;10.628;2022-12-18T02:14:04;-11.40;99.90
8537;DHT22;4306;50.210;10.628;2022-12-18T02:16:39;-11.40;99.90
8537;DHT22;4306;50.210;10.628;2022-12-18T02:19:26;-11.40;99.90
8537;DHT22;4306;50.210;10.628;2022-12-18T02:22:00;-11.50;99.90
8537;DHT22;4306;50.210;10.628;2022-12-18T02:24:38;-11.40;99.90
8537;DHT22;4306;50.210;10.628;2022-12-18T02:27:09;-11.50;99.90
8537;DHT22;4306;50.210;10.628;2022-12-18T02:29:39;-11.50;99.90
8537;DHT22;4306;50.210;10.628;2022-12-18T02:32:11;-11.50;99.90
8537;DHT22;4306;50.210;10.628;2022-12-18T02:34:40;-11.40;99.90
8537;DHT22;4306;50.210;10.628;2022-12-18T02:37:10;-11.40;99.90
8537;DHT22;4306;50.210;10.628;2022-12-18T02:39:41;-11.40;99.90
8537;DHT22;4306;50.210;10.628;2022-12-18T02:42:11;-11.50;99.90
8537;DHT22;4306;50.210;10.628;2022-12-18T02:44:42;-11.60;99.90
8537;DHT22;4306;50.210;10.628;2022-12-18T02:47:10;-11.60;99.90
8537;DHT22;4306;50.210;10.628;2022-12-18T02:49:51;-11.60;99.90
8537;DHT22;4306;50.210;10.628;2022-12-18T02:52:28;-11.60;99.90
8537;DHT22;4306;50.210;10.628;2022-12-18T02:55:08;-11.50;99.90
8537;DHT22;4306;50.210;10.628;2022-12-18T02:57:45;-11.40;99.90
8537;DHT22;4306;50.210;10.628;2022-12-18T03:00:17;-11.50;99.90
8537;DHT22;4306;50.210;10.628;2022-12-18T03:02:47;-11.50;99.90
8537;DHT22;4306;50.210;10.628;2022-12-18T03:05:18;-11.50;99.90
8537;DHT22;4306;50.210;10.628;2022-12-18T03:07:50;-11.40;99.90
8537;DHT22;4306;50.210;10.628;2022-12-18T03:10:24;-11.40;99.90
8537;DHT22;4306;50.210;10.628;2022-12-18T03:12:55;-11.40;99.90
8537;DHT22;4306;50.210;10.628;2022-12-18T03:15:28;-11.20;99.90
8537;DHT22;4306;50.210;10.628;2022-12-18T03:18:01;-11.10;99.90
8537;DHT22;4306;50.210;10.628;2022-12-18T03:20:31;-11.10;99.90
8537;DHT22;4306;50.210;10.628;2022-12-18T03:23:04;-10.90;99.90
8537;DHT22;4306;50.210;10.628;2022-12-18T03:25:33;-10.60;99.90
8537;DHT22;4306;50.210;10.628;2022-12-18T03:28:03;-10.60;99.90
8537;DHT22;4306;50.210;10.628;2022-12-18T03:30:36;-10.40;99.90
8537;DHT22;4306;50.210;10.628;2022-12-18T03:33:07;-10.30;99.90
8537;DHT22;4306;50.210;10.628;2022-12-18T03:35:38;-10.20;99.90
8537;DHT22;4306;50.210;10.628;2022-12-18T03:38:06;-10.00;99.90
8537;DHT22;4306;50.210;10.628;2022-12-18T03:40:44;-10.00;99.90
8537;DHT22;4306;50.210;10.628;2022-12-18T03:43:19;-9.90;99.90
8537;DHT22;4306;50.210;10.628;2022-12-18T03:45:52;-9.90;99.90
8537;DHT22;4306;50.210;10.628;2022-12-18T03:48:26;-9.80;99.90
8537;DHT22;4306;50.210;10.628;2022-12-18T03:50:57;-9.80;99.90
8537;DHT22;4306;50.210;10.628;2022-12-18T03:53:31;-9.90;99.90
8537;DHT22;4306;50.210;10.628;2022-12-18T03:56:00;-9.90;99.90
8537;DHT22;4306;50.210;10.628;2022-12-18T03:58:31;-10.00;99.90
8537;DHT22;4306;50.210;10.628;2022-12-18T04:01:02;-10.00;99.90
8537;DHT22;4306;50.210;10.628;2022-12-18T04:03:32;-10.00;99.90
8537;DHT22;4306;50.210;10.628;2022-12-18T04:06:00;-10.00;99.90
8537;DHT22;4306;50.210;10.628;2022-12-18T04:08:28;-10.00;99.90
8537;DHT22;4306;50.210;10.628;2022-12-18T04:10:55;-10.00;99.90
8537;DHT22;4306;50.210;10.628;2022-12-18T04:13:23;-9.90;99.90
8537;DHT22;4306;50.210;10.628;2022-12-18T04:15:51;-9.90;99.90
8537;DHT22;4306;50.210;10.628;2022-12-18T04:18:18;-9.80;99.90
8537;DHT22;4306;50.210;10.628;2022-12-18T04:20:45;-9.90;99.90
8537;DHT22;4306;50.210;10.628;2022-12-18T04:23:12;-9.80;99.90
8537;DHT22;4306;50.210;10.628;2022-12-18T04:25:38;-9.80;99.90
8537;DHT22;4306;50.210;10.628;2022-12-18T04:28:05;-9.70;99.90
8537;DHT22;4306;50.210;10.628;2022-12-18T04:30:32;-9.80;99.90
8537;DHT22;4306;50.210;10.628;2022-12-18T04:33:00;-9.80;99.90
8537;DHT22;4306;50.210;10.628;2022-12-18T04:35:27;-9.80;99.90
8537;DHT22;4306;50.210;10.628;2022-12-18T04:37:54;-9.80;99.90
8537;DHT22;4306;50.210;10.628;2022-12-18T04:40:21;-9.80;99.90
8537;DHT22;4306;50.210;10.628;2022-12-18T04:42:48;-9.80;99.90
8537;DHT22;4306;50.210;10.628;2022-12-18T04:45:15;-9.80;99.90
8537;DHT22;4306;50.210;10.628;2022-12-18T04:47:42;-9.80;99.90
8537;DHT22;4306;50.210;10.628;2022-12-18T04:50:10;-9.90;99.90
8537;DHT22;4306;50.210;10.628;2022-12-18T04:52:37;-9.90;99.90
8537;DHT22;4306;50.210;10.628;2022-12-18T04:55:04;-10.00;99.90
8537;DHT22;4306;50.210;10.628;2022-12-18T04:57:31;-10.10;99.90
8537;DHT22;4306;50.210;10.628;2022-12-18T04:59:58;-10.10;99.90
8537;DHT22;4306;50.210;10.628;2022-12-18T05:02:25;-10.10;99.90
8537;DHT22;4306;50.210;10.628;2022-12-18T05:04:52;-10.20;99.90
8537;DHT22;4306;50.210;10.628;2022-12-18T05:07:20;-10.20;99.90
8537;DHT22;4306;50.210;10.628;2022-12-18T05:09:47;-10.30;99.90
8537;DHT22;4306;50.210;10.628;2022-12-18T05:12:13;-10.30;99.90
8537;DHT22;4306;50.210;10.628;2022-12-18T05:14:40;-10.30;99.90
8537;DHT22;4306;50.210;10.628;2022-12-18T05:17:07;-10.40;99.90
8537;DHT22;4306;50.210;10.628;2022-12-18T05:19:34;-10.50;99.90
8537;DHT22;4306;50.210;10.628;2022-12-18T05:22:01;-10.50;99.90
8537;DHT22;4306;50.210;10.628;2022-12-18T05:24:29;-10.50;99.90
8537;DHT22;4306;50.210;10.628;2022-12-18T05:26:56;-10.70;99.90
8537;DHT22;4306;50.210;10.628;2022-12-18T05:29:23;-10.60;99.90
8537;DHT22;4306;50.210;10.628;2022-12-18T05:31:50;-10.60;99.90
8537;DHT22;4306;50.210;10.628;2022-12-18T05:34:17;-10.70;99.90
8537;DHT22;4306;50.210;10.628;2022-12-18T05:36:43;-10.80;99.90
8537;DHT22;4306;50.210;10.628;2022-12-18T05:39:11;-10.90;99.90
8537;DHT22;4306;50.210;10.628;2022-12-18T05:41:39;-10.90;99.90
8537;DHT22;4306;50.210;10.628;2022-12-18T05:44:06;-10.90;99.90
8537;DHT22;4306;50.210;10.628;2022-12-18T05:46:32;-10.90;99.90
8537;DHT22;4306;50.210;10.628;2022-12-18T05:49:00;-10.90;99.90
8537;DHT22;4306;50.210;10.628;2022-12-18T05:51:27;-11.00;99.90
8537;DHT22;4306;50.210;10.628;2022-12-18T05:53:54;-11.00;99.90
8537;DHT22;4306;50.210;10.628;2022-12-18T05:56:22;-11.00;99.90
8537;DHT22;4306;50.210;10.628;2022-12-18T05:58:53;-11.00;99.90
8537;DHT22;4306;50.210;10.628;2022-12-18T06:01:22;-11.00;99.90
8537;DHT22;4306;50.210;10.628;2022-12-18T06:03:49;-11.10;99.90
8537;DHT22;4306;50.210;10.628;2022-12-18T06:06:18;-11.10;99.90
8537;DHT22;4306;50.210;10.628;2022-12-18T06:08:45;-11.10;99.90
8537;DHT22;4306;50.210;10.628;2022-12-18T06:11:15;-11.10;99.90
8537;DHT22;4306;50.210;10.628;2022-12-18T06:13:42;-11.10;99.90
8537;DHT22;4306;50.210;10.628;2022-12-18T06:16:10;-11.10;99.90
8537;DHT22;4306;50.210;10.628;2022-12-18T06:18:37;-11.00;99.90
8537;DHT22;4306;50.210;10.628;2022-12-18T06:21:04;-11.00;99.90
8537;DHT22;4306;50.210;10.628;2022-12-18T06:23:31;-11.00;99.90
8537;DHT22;4306;50.210;10.628;2022-12-18T06:25:58;-11.00;99.90
8537;DHT22;4306;50.210;10.628;2022-12-18T06:28:25;-11.00;99.90
8537;DHT22;4306;50.210;10.628;2022-12-18T06:30:52;-11.00;99.90
8537;DHT22;4306;50.210;10.628;2022-12-18T06:33:20;-11.00;99.90
8537;DHT22;4306;50.210;10.628;2022-12-18T06:35:46;-11.00;99.90
8537;DHT22;4306;50.210;10.628;2022-12-18T06:38:13;-11.00;99.90
8537;DHT22;4306;50.210;10.628;2022-12-18T06:40:40;-11.00;99.90
8537;DHT22;4306;50.210;10.628;2022-12-18T06:43:07;-11.10;99.90
8537;DHT22;4306;50.210;10.628;2022-12-18T06:45:34;-11.20;99.90
8537;DHT22;4306;50.210;10.628;2022-12-18T06:48:01;-11.20;99.90
8537;DHT22;4306;50.210;10.628;2022-12-18T06:50:29;-11.20;99.90
8537;DHT22;4306;50.210;10.628;2022-12-18T06:52:56;-11.40;99.90
8537;DHT22;4306;50.210;10.628;2022-12-18T06:55:23;-11.50;99.90
8537;DHT22;4306;50.210;10.628;2022-12-18T06:57:50;-11.50;99.90
8537;DHT22;4306;50.210;10.628;2022-12-18T07:00:17;-11.50;99.90
8537;DHT22;4306;50.210;10.628;2022-12-18T07:02:44;-11.60;99.90
8537;DHT22;4306;50.210;10.628;2022-12-18T07:05:11;-11.60;99.90
8537;DHT22;4306;50.210;10.628;2022-12-18T07:07:39;-11.80;99.90
8537;DHT22;4306;50.210;10.628;2022-12-18T07:10:06;-11.90;99.90
8537;DHT22;4306;50.210;10.628;2022-12-18T07:12:33;-11.90;99.90
8537;DHT22;4306;50.210;10.628;2022-12-18T07:15:00;-11.90;99.90
8537;DHT22;4306;50.210;10.628;2022-12-18T07:17:26;-11.90;99.90
8537;DHT22;4306;50.210;10.628;2022-12-18T07:19:53;-11.90;99.90
8537;DHT22;4306;50.210;10.628;2022-12-18T07:22:21;-11.80;99.90
8537;DHT22;4306;50.210;10.628;2022-12-18T07:24:49;-11.80;99.90
8537;DHT22;4306;50.210;10.628;2022-12-18T07:27:16;-11.70;99.90
8537;DHT22;4306;50.210;10.628;2022-12-18T07:29:43;-11.70;99.90
8537;DHT22;4306;50.210;10.628;2022-12-18T07:32:09;-11.70;99.90
8537;DHT22;4306;50.210;10.628;2022-12-18T07:34:36;-11.70;99.90
8537;DHT22;4306;50.210;10.628;2022-12-18T07:37:03;-11.80;99.90
8537;DHT22;4306;50.210;10.628;2022-12-18T07:39:30;-11.70;99.90
8537;DHT22;4306;50.210;10.628;2022-12-18T07:41:58;-11.70;99.90
8537;DHT22;4306;50.210;10.628;2022-12-18T07:44:43;-11.70;99.90
8537;DHT22;4306;50.210;10.628;2022-12-18T07:47:09;-11.70;99.90
8537;DHT22;4306;50.210;10.628;2022-12-18T07:49:36;-11.70;99.90
8537;DHT22;4306;50.210;10.628;2022-12-18T07:52:03;-11.70;99.90
8537;DHT22;4306;50.210;10.628;2022-12-18T07:54:30;-11.70;99.90
8537;DHT22;4306;50.210;10.628;2022-12-18T07:56:59;-11.60;99.90
8537;DHT22;4306;50.210;10.628;2022-12-18T07:59:26;-11.70;99.90
8537;DHT22;4306;50.210;10.628;2022-12-18T08:01:53;-11.70;99.90
8537;DHT22;4306;50.210;10.628;2022-12-18T08:04:20;-11.50;99.90
8537;DHT22;4306;50.210;10.628;2022-12-18T08:06:47;-11.50;99.90
8537;DHT22;4306;50.210;10.628;2022-12-18T08:09:14;-11.40;99.90
8537;DHT22;4306;50.210;10.628;2022-12-18T08:11:41;-11.30;99.90
8537;DHT22;4306;50.210;10.628;2022-12-18T08:14:09;-11.30;99.90
8537;DHT22;4306;50.210;10.628;2022-12-18T08:16:36;-11.20;99.90
8537;DHT22;4306;50.210;10.628;2022-12-18T08:19:03;-11.30;99.90
8537;DHT22;4306;50.210;10.628;2022-12-18T08:21:30;-11.20;99.90
8537;DHT22;4306;50.210;10.628;2022-12-18T08:23:59;-11.20;99.90
8537;DHT22;4306;50.210;10.628;2022-12-18T08:26:30;-11.20;99.90
8537;DHT22;4306;50.210;10.628;2022-12-18T08:28:58;-11.10;99.90
8537;DHT22;4306;50.210;10.628;2022-12-18T08:31:29;-11.00;99.90
8537;DHT22;4306;50.210;10.628;2022-12-18T08:33:57;-11.00;99.90
8537;DHT22;4306;50.210;10.628;2022-12-18T08:36:24;-10.90;99.90
8537;DHT22;4306;50.210;10.628;2022-12-18T08:38:51;-10.80;99.90
8537;DHT22;4306;50.210;10.628;2022-12-18T08:41:19;-10.70;99.90
8537;DHT22;4306;50.210;10.628;2022-12-18T08:43:46;-10.60;99.90
8537;DHT22;4306;50.210;10.628;2022-12-18T08:46:35;-10.60;99.90
8537;DHT22;4306;50.210;10.628;2022-12-18T08:49:03;-10.40;99.90
8537;DHT22;4306;50.210;10.628;2022-12-18T08:51:30;-10.50;99.90
8537;DHT22;4306;50.210;10.628;2022-12-18T08:53:58;-10.40;99.90
8537;DHT22;4306;50.210;10.628;2022-12-18T08:56:24;-10.20;99.90
8537;DHT22;4306;50.210;10.628;2022-12-18T08:58:52;-10.30;99.90
8537;DHT22;4306;50.210;10.628;2022-12-18T09:01:20;-10.20;99.90
8537;DHT22;4306;50.210;10.628;2022-12-18T09:03:48;-10.20;99.90
8537;DHT22;4306;50.210;10.628;2022-12-18T09:06:17;-10.10;99.90
8537;DHT22;4306;50.210;10.628;2022-12-18T09:08:44;-10.00;99.90
8537;DHT22;4306;50.210;10.628;2022-12-18T09:11:18;-10.00;99.90
8537;DHT22;4306;50.210;10.628;2022-12-18T09:13:45;-9.90;99.90
8537;DHT22;4306;50.210;10.628;2022-12-18T09:16:12;-9.80;99.90
8537;DHT22;4306;50.210;10.628;2022-12-18T09:18:39;-9.70;99.90
8537;DHT22;4306;50.210;10.628;2022-12-18T09:21:12;-9.60;99.90
8537;DHT22;4306;50.210;10.628;2022-12-18T09:23:39;-9.50;99.90
8537;DHT22;4306;50.210;10.628;2022-12-18T09:26:06;-9.50;99.90
8537;DHT22;4306;50.210;10.628;2022-12-18T09:28:33;-9.40;99.90
8537;DHT22;4306;50.210;10.628;2022-12-18T09:31:04;-9.30;99.90
8537;DHT22;4306;50.210;10.628;2022-12-18T09:33:31;-9.20;99.90
8537;DHT22;4306;50.210;10.628;2022-12-18T09:36:03;-9.10;99.90
8537;DHT22;4306;50.210;10.628;2022-12-18T09:38:35;-9.00;99.90
8537;DHT22;4306;50.210;10.628;2022-12-18T09:41:05;-8.90;99.90
8537;DHT22;4306;50.210;10.628;2022-12-18T09:43:36;-8.80;99.90
8537;DHT22;4306;50.210;10.628;2022-12-18T09:46:10;-8.70;99.90
8537;DHT22;4306;50.210;10.628;2022-12-18T09:48:40;-8.70;99.90
8537;DHT22;4306;50.210;10.628;2022-12-18T09:51:13;-8.60;99.90
8537;DHT22;4306;50.210;10.628;2022-12-18T09:53:46;-8.50;99.90
8537;DHT22;4306;50.210;10.628;2022-12-18T09:56:17;-8.40;99.90
8537;DHT22;4306;50.210;10.628;2022-12-18T09:58:47;-8.30;99.90
8537;DHT22;4306;50.210;10.628;2022-12-18T10:01:20;-8.30;99.90
8537;DHT22;4306;50.210;10.628;2022-12-18T10:03:48;-8.20;99.90
8537;DHT22;4306;50.210;10.628;2022-12-18T10:06:20;-8.10;99.90
8537;DHT22;4306;50.210;10.628;2022-12-18T10:08:55;-8.00;99.90
8537;DHT22;4306;50.210;10.628;2022-12-18T10:11:39;-8.00;99.90
8537;DHT22;4306;50.210;10.628;2022-12-18T10:14:12;-7.90;99.90
8537;DHT22;4306;50.210;10.628;2022-12-18T10:16:50;-7.80;99.90
8537;DHT22;4306;50.210;10.628;2022-12-18T10:19:39;-7.70;99.90
8537;DHT22;4306;50.210;10.628;2022-12-18T10:22:19;-7.70;99.90
8537;DHT22;4306;50.210;10.628;2022-12-18T10:24:53;-7.60;99.90
8537;DHT22;4306;50.210;10.628;2022-12-18T10:27:24;-7.50;99.90
8537;DHT22;4306;50.210;10.628;2022-12-18T10:29:52;-7.50;99.90
8537;DHT22;4306;50.210;10.628;2022-12-18T10:32:22;-7.30;99.90
8537;DHT22;4306;50.210;10.628;2022-12-18T10:34:54;-7.30;99.90
8537;DHT22;4306;50.210;10.628;2022-12-18T10:37:23;-7.20;99.90
8537;DHT22;4306;50.210;10.628;2022-12-18T10:40:08;-7.10;99.90
8537;DHT22;4306;50.210;10.628;2022-12-18T10:42:36;-7.10;99.90
8537;DHT22;4306;50.210;10.628;2022-12-18T10:45:08;-7.00;99.90
8537;DHT22;4306;50.210;10.628;2022-12-18T10:47:35;-6.90;99.90
8537;DHT22;4306;50.210;10.628;2022-12-18T10:50:03;-6.80;99.90
8537;DHT22;4306;50.210;10.628;2022-12-18T10:52:30;-6.80;99.90
8537;DHT22;4306;50.210;10.628;2022-12-18T10:54:59;-6.70;99.90
8537;DHT22;4306;50.210;10.628;2022-12-18T10:57:33;-6.60;99.90
8537;DHT22;4306;50.210;10.628;2022-12-18T11:00:24;-6.50;99.90
8537;DHT22;4306;50.210;10.628;2022-12-18T11:02:52;-6.40;99.90
8537;DHT22;4306;50.210;10.628;2022-12-18T11:05:31;-6.30;99.90
8537;DHT22;4306;50.210;10.628;2022-12-18T11:08:00;-6.30;99.90
8537;DHT22;4306;50.210;10.628;2022-12-18T11:10:31;-6.20;99.90
8537;DHT22;4306;50.210;10.628;2022-12-18T11:13:12;-6.10;99.90
8537;DHT22;4306;50.210;10.628;2022-12-18T11:15:43;-6.10;99.90
8537;DHT22;4306;50.210;10.628;2022-12-18T11:18:17;-6.00;99.90
8537;DHT22;4306;50.210;10.628;2022-12-18T11:20:52;-6.00;99.90
8537;DHT22;4306;50.210;10.628;2022-12-18T11:23:21;-5.90;99.90
8537;DHT22;4306;50.210;10.628;2022-12-18T11:25:57;-5.90;99.90
8537;DHT22;4306;50.210;10.628;2022-12-18T11:28:35;-5.80;99.90
8537;DHT22;4306;50.210;10.628;2022-12-18T11:31:16;-5.80;99.90
8537;DHT22;4306;50.210;10.628;2022-12-18T11:33:46;-5.70;99.90
8537;DHT22;4306;50.210;10.628;2022-12-18T11:36:17;-5.70;99.90
8537;DHT22;4306;50.210;10.628;2022-12-18T11:38:45;-5.60;99.90
8537;DHT22;4306;50.210;10.628;2022-12-18T11:41:19;-5.50;99.90
8537;DHT22;4306;50.210;10.628;2022-12-18T11:43:52;-5.50;99.90
8537;DHT22;4306;50.210;10.628;2022-12-18T11:46:27;-5.40;99.90
8537;DHT22;4306;50.210;10.628;2022-12-18T11:49:01;-5.30;99.90
8537;DHT22;4306;50.210;10.628;2022-12-18T11:51:35;-5.10;99.90
8537;DHT22;4306;50.210;10.628;2022-12-18T11:54:10;-5.20;99.90
8537;DHT22;4306;50.210;10.628;2022-12-18T11:56:45;-5.10;99.90
8537;DHT22;4306;50.210;10.628;2022-12-18T11:59:22;-4.90;99.90
8537;DHT22;4306;50.210;10.628;2022-12-18T12:01:57;-5.10;99.90
8537;DHT22;4306;50.210;10.628;2022-12-18T12:04:46;-5.00;99.90
8537;DHT22;4306;50.210;10.628;2022-12-18T12:07:24;-5.10;99.90
8537;DHT22;4306;50.210;10.628;2022-12-18T12:10:01;-5.10;99.90
8537;DHT22;4306;50.210;10.628;2022-12-18T12:12:36;-5.00;99.90
8537;DHT22;4306;50.210;10.628;2022-12-18T12:15:23;-4.90;99.90
8537;DHT22;4306;50.210;10.628;2022-12-18T12:17:57;-4.90;99.90
8537;DHT22;4306;50.210;10.628;2022-12-18T12:20:36;-4.80;99.90
8537;DHT22;4306;50.210;10.628;2022-12-18T12:23:14;-4.80;99.90
8537;DHT22;4306;50.210;10.628;2022-12-18T12:25:50;-4.80;99.90
8537;DHT22;4306;50.210;10.628;2022-12-18T12:28:28;-4.70;99.90
8537;DHT22;4306;50.210;10.628;2022-12-18T12:31:10;-4.70;99.90
8537;DHT22;4306;50.210;10.628;2022-12-18T12:33:43;-4.70;99.90
8537;DHT22;4306;50.210;10.628;2022-12-18T12:36:20;-4.50;99.90
8537;DHT22;4306;50.210;10.628;2022-12-18T12:38:53;-4.40;99.90
8537;DHT22;4306;50.210;10.628;2022-12-18T12:41:25;-4.50;99.90
8537;DHT22;4306;50.210;10.628;2022-12-18T12:44:16;-4.60;99.90
8537;DHT22;4306;50.210;10.628;2022-12-18T12:46:48;-4.50;99.90
8537;DHT22;4306;50.210;10.628;2022-12-18T12:49:19;-4.40;99.90
8537;DHT22;4306;50.210;10.628;2022-12-18T12:51:56;-4.40;99.90
8537;DHT22;4306;50.210;10.628;2022-12-18T12:54:26;-4.40;99.90
8537;DHT22;4306;50.210;10.628;2022-12-18T12:56:59;-4.40;99.90
8537;DHT22;4306;50.210;10.628;2022-12-18T12:59:34;-4.40;99.90
8537;DHT22;4306;50.210;10.628;2022-12-18T13:02:13;-4.40;99.90
8537;DHT22;4306;50.210;10.628;2022-12-18T13:04:46;-4.40;99.90
8537;DHT22;4306;50.210;10.628;2022-12-18T13:07:16;-4.30;99.90
8537;DHT22;4306;50.210;10.628;2022-12-18T13:10:23;-4.20;99.90
8537;DHT22;4306;50.210;10.628;2022-12-18T13:12:58;-4.20;99.90
8537;DHT22;4306;50.210;10.628;2022-12-18T13:15:29;-4.20;99.90
8537;DHT22;4306;50.210;10.628;2022-12-18T13:18:13;-4.30;99.90
8537;DHT22;4306;50.210;10.628;2022-12-18T13:20:42;-4.50;99.90
8537;DHT22;4306;50.210;10.628;2022-12-18T13:23:28;-4.50;99.90
8537;DHT22;4306;50.210;10.628;2022-12-18T13:25:57;-4.30;99.90
8537;DHT22;4306;50.210;10.628;2022-12-18T13:28:53;-4.40;99.90
8537;DHT22;4306;50.210;10.628;2022-12-18T13:34:34;-4.40;99.90
8537;DHT22;4306;50.210;10.628;2022-12-18T13:43:36;-4.30;99.90
8537;DHT22;4306;50.210;10.628;2022-12-18T13:46:19;-4.40;99.90
8537;DHT22;4306;50.210;10.628;2022-12-18T13:48:56;-4.40;99.90
8537;DHT22;4306;50.210;10.628;2022-12-18T13:51:25;-4.50;99.90
8537;DHT22;4306;50.210;10.628;2022-12-18T13:53:55;-4.40;99.90
8537;DHT22;4306;50.210;10.628;2022-12-18T13:56:25;-4.40;99.90
8537;DHT22;4306;50.210;10.628;2022-12-18T13:59:14;-4.40;99.90
8537;DHT22;4306;50.210;10.628;2022-12-18T14:01:43;-4.30;99.90
8537;DHT22;4306;50.210;10.628;2022-12-18T14:04:11;-4.40;99.90
8537;DHT22;4306;50.210;10.628;2022-12-18T14:06:40;-4.50;99.90
8537;DHT22;4306;50.210;10.628;2022-12-18T14:09:14;-4.50;99.90
8537;DHT22;4306;50.210;10.628;2022-12-18T14:11:46;-4.50;99.90
8537;DHT22;4306;50.210;10.628;2022-12-18T14:14:15;-4.40;99.90
8537;DHT22;4306;50.210;10.628;2022-12-18T14:16:43;-4.30;99.90
8537;DHT22;4306;50.210;10.628;2022-12-18T14:19:13;-4.40;99.90
8537;DHT22;4306;50.210;10.628;2022-12-18T14:21:46;-4.60;99.90
8537;DHT22;4306;50.210;10.628;2022-12-18T14:24:15;-4.60;99.90
8537;DHT22;4306;50.210;10.628;2022-12-18T14:26:43;-4.50;99.90
8537;DHT22;4306;50.210;10.628;2022-12-18T14:29:35;-4.40;99.90
8537;DHT22;4306;50.210;10.628;2022-12-18T14:32:11;-4.40;99.90
8537;DHT22;4306;50.210;10.628;2022-12-18T14:34:42;-4.40;99.90
8537;DHT22;4306;50.210;10.628;2022-12-18T14:37:11;-4.40;99.90
8537;DHT22;4306;50.210;10.628;2022-12-18T14:39:40;-4.40;99.90
8537;DHT22;4306;50.210;10.628;2022-12-18T14:42:10;-4.50;99.90
8537;DHT22;4306;50.210;10.628;2022-12-18T14:44:38;-4.60;99.90
8537;DHT22;4306;50.210;10.628;2022-12-18T14:47:04;-4.60;99.90
8537;DHT22;4306;50.210;10.628;2022-12-18T14:49:33;-4.70;99.90
8537;DHT22;4306;50.210;10.628;2022-12-18T14:52:04;-4.80;99.90
8537;DHT22;4306;50.210;10.628;2022-12-18T14:54:34;-4.90;99.90
8537;DHT22;4306;50.210;10.628;2022-12-18T14:57:05;-4.80;99.90
8537;DHT22;4306;50.210;10.628;2022-12-18T14:59:32;-4.80;99.90
8537;DHT22;4306;50.210;10.628;2022-12-18T15:02:03;-4.80;99.90
8537;DHT22;4306;50.210;10.628;2022-12-18T15:04:33;-4.80;99.90
8537;DHT22;4306;50.210;10.628;2022-12-18T15:07:08;-4.80;99.90
8537;DHT22;4306;50.210;10.628;2022-12-18T15:09:38;-4.90;99.90
8537;DHT22;4306;50.210;10.628;2022-12-18T15:12:15;-4.90;99.90
8537;DHT22;4306;50.210;10.628;2022-12-18T15:14:46;-4.90;99.90
8537;DHT22;4306;50.210;10.628;2022-12-18T15:17:18;-4.90;99.90
8537;DHT22;4306;50.210;10.628;2022-12-18T15:19:47;-4.90;99.90
8537;DHT22;4306;50.210;10.628;2022-12-18T15:22:20;-4.80;99.90
8537;DHT22;4306;50.210;10.628;2022-12-18T15:24:48;-4.90;99.90
8537;DHT22;4306;50.210;10.628;2022-12-18T15:27:34;-5.00;99.90
8537;DHT22;4306;50.210;10.628;2022-12-18T15:30:20;-4.90;99.90
8537;DHT22;4306;50.210;10.628;2022-12-18T15:32:48;-5.10;99.90
8537;DHT22;4306;50.210;10.628;2022-12-18T15:35:17;-5.10;99.90
8537;DHT22;4306;50.210;10.628;2022-12-18T15:37:44;-5.20;99.90
8537;DHT22;4306;50.210;10.628;2022-12-18T15:40:14;-5.20;99.90
8537;DHT22;4306;50.210;10.628;2022-12-18T15:42:42;-5.20;99.90
8537;DHT22;4306;50.210;10.628;2022-12-18T15:45:26;-5.30;99.90
8537;DHT22;4306;50.210;10.628;2022-12-18T15:47:53;-5.30;99.90
8537;DHT22;4306;50.210;10.628;2022-12-18T15:50:20;-5.20;99.90
8537;DHT22;4306;50.210;10.628;2022-12-18T15:52:49;-5.30;99.90
8537;DHT22;4306;50.210;10.628;2022-12-18T15:55:19;-5.30;99.90
8537;DHT22;4306;50.210;10.628;2022-12-18T15:58:04;-5.30;99.90
8537;DHT22;4306;50.210;10.628;2022-12-18T16:00:32;-5.20;99.90
8537;DHT22;4306;50.210;10.628;2022-12-18T16:02:59;-5.10;99.90
8537;DHT22;4306;50.210;10.628;2022-12-18T16:05:27;-5.20;99.90
8537;DHT22;4306;50.210;10.628;2022-12-18T16:07:54;-5.10;99.90
8537;DHT22;4306;50.210;10.628;2022-12-18T16:10:22;-5.10;99.90
8537;DHT22;4306;50.210;10.628;2022-12-18T16:12:50;-5.10;99.90